sensor_id;sensor_type;location;lat;lon;timestamp;P1;durP1;ratioP1;P2;durP2;ratioP2
38318;SDS011;24121;53.536;10.224;2023-04-25T06:52:14;15.40;;;3.65;;
38318;SDS011;24121;53.536;10.224;2023-04-25T06:54:40;13.82;;;3.53;;
38318;SDS011;24121;53.536;10.224;2023-04-25T06:57:05;18.52;;;3.97;;
38318;SDS011;24121;53.536;10.224;2023-04-25T06:59:30;15.95;;;3.30;;
38318;SDS011;24121;53.536;10.224;2023-04-25T07:01:56;13.55;;;3.72;;
38318;SDS011;24121;53.536;10.224;2023-04-25T07:04:21;13.93;;;4.28;;
38318;SDS011;24121;53.536;10.224;2023-04-25T07:06:46;11.05;;;3.22;;
38318;SDS011;24121;53.536;10.224;2023-04-25T07:09:13;15.85;;;4.03;;
38318;SDS011;24121;53.536;10.224;2023-04-25T07:11:38;14.68;;;3.40;;
38318;SDS011;24121;53.536;10.224;2023-04-25T07:14:03;12.75;;;2.97;;
38318;SDS011;24121;53.536;10.224;2023-04-25T07:16:29;12.27;;;3.42;;
38318;SDS011;24121;53.536;10.224;2023-04-25T07:18:54;13.00;;;3.47;;
38318;SDS011;24121;53.536;10.224;2023-04-25T07:21:20;11.63;;;3.05;;
38318;SDS011;24121;53.536;10.224;2023-04-25T07:23:45;11.75;;;3.35;;
38318;SDS011;24121;53.536;10.224;2023-04-25T07:26:11;10.73;;;3.80;;
38318;SDS011;24121;53.536;10.224;2023-04-25T07:28:36;10.70;;;2.83;;
38318;SDS011;24121;53.536;10.224;2023-04-25T07:31:02;10.98;;;2.78;;
38318;SDS011;24121;53.536;10.224;2023-04-25T07:33:27;9.75;;;3.00;;
38318;SDS011;24121;53.536;10.224;2023-04-25T07:35:53;13.00;;;2.88;;
38318;SDS011;24121;53.536;10.224;2023-04-25T07:38:18;11.65;;;3.13;;
38318;SDS011;24121;53.536;10.224;2023-04-25T07:40:44;8.65;;;2.72;;
38318;SDS011;24121;53.536;10.224;2023-04-25T07:43:09;9.25;;;2.40;;
38318;SDS011;24121;53.536;10.224;2023-04-25T07:45:37;12.75;;;3.17;;
38318;SDS011;24121;53.536;10.224;2023-04-25T07:48:02;16.35;;;3.55;;
38318;SDS011;24121;53.536;10.224;2023-04-25T07:50:28;9.63;;;2.83;;
38318;SDS011;24121;53.536;10.224;2023-04-25T07:52:53;11.65;;;2.80;;
38318;SDS011;24121;53.536;10.224;2023-04-25T07:55:18;12.52;;;3.00;;
38318;SDS011;24121;53.536;10.224;2023-04-25T07:57:44;15.15;;;2.92;;
38318;SDS011;24121;53.536;10.224;2023-04-25T08:00:09;8.48;;;2.88;;
38318;SDS011;24121;53.536;10.224;2023-04-25T08:02:36;11.43;;;2.83;;
38318;SDS011;24121;53.536;10.224;2023-04-25T08:05:02;11.30;;;2.70;;
38318;SDS011;24121;53.536;10.224;2023-04-25T08:07:27;11.80;;;2.75;;
38318;SDS011;24121;53.536;10.224;2023-04-25T08:09:53;8.52;;;2.63;;
38318;SDS011;24121;53.536;10.224;2023-04-25T08:12:18;17.70;;;2.80;;
38318;SDS011;24121;53.536;10.224;2023-04-25T08:14:44;9.65;;;2.28;;
38318;SDS011;24121;53.536;10.224;2023-04-25T08:17:09;10.80;;;2.70;;
38318;SDS011;24121;53.536;10.224;2023-04-25T08:19:34;12.88;;;2.90;;
38318;SDS011;24121;53.536;10.224;2023-04-25T08:22:00;11.63;;;2.67;;
38318;SDS011;24121;53.536;10.224;2023-04-25T08:24:25;12.40;;;3.03;;
38318;SDS011;24121;53.536;10.224;2023-04-25T08:26:51;12.80;;;3.05;;
38318;SDS011;24121;53.536;10.224;2023-04-25T08:29:16;10.10;;;2.80;;
38318;SDS011;24121;53.536;10.224;2023-04-25T08:31:41;10.88;;;2.47;;
38318;SDS011;24121;53.536;10.224;2023-04-25T08:34:07;8.70;;;2.70;;
38318;SDS011;24121;53.536;10.224;2023-04-25T08:36:32;9.98;;;2.67;;
38318;SDS011;24121;53.536;10.224;2023-04-25T08:38:58;10.90;;;2.63;;
38318;SDS011;24121;53.536;10.224;2023-04-25T08:41:23;7.82;;;1.77;;
38318;SDS011;24121;53.536;10.224;2023-04-25T08:43:50;8.18;;;2.53;;
38318;SDS011;24121;53.536;10.224;2023-04-25T08:46:17;9.90;;;1.70;;
38318;SDS011;24121;53.536;10.224;2023-04-25T08:48:43;5.30;;;1.48;;
38318;SDS011;24121;53.536;10.224;2023-04-25T08:51:09;7.03;;;2.25;;
38318;SDS011;24121;53.536;10.224;2023-04-25T08:53:35;9.48;;;2.08;;
38318;SDS011;24121;53.536;10.224;2023-04-25T08:56:01;11.65;;;2.45;;
38318;SDS011;24121;53.536;10.224;2023-04-25T08:58:27;10.73;;;2.50;;
38318;SDS011;24121;53.536;10.224;2023-04-25T09:00:53;10.35;;;2.45;;
38318;SDS011;24121;53.536;10.224;2023-04-25T09:03:18;7.90;;;2.53;;
38318;SDS011;24121;53.536;10.224;2023-04-25T09:05:44;8.93;;;2.13;;
38318;SDS011;24121;53.536;10.224;2023-04-25T09:08:09;13.23;;;3.42;;
38318;SDS011;24121;53.536;10.224;2023-04-25T09:10:35;12.20;;;2.30;;
38318;SDS011;24121;53.536;10.224;2023-04-25T09:13:11;9.55;;;2.28;;
38318;SDS011;24121;53.536;10.224;2023-04-25T09:15:46;9.45;;;2.30;;
38318;SDS011;24121;53.536;10.224;2023-04-25T09:18:12;11.90;;;2.20;;
38318;SDS011;24121;53.536;10.224;2023-04-25T09:20:43;7.97;;;2.53;;
38318;SDS011;24121;53.536;10.224;2023-04-25T09:23:09;6.10;;;2.10;;
38318;SDS011;24121;53.536;10.224;2023-04-25T09:25:37;10.65;;;2.47;;
38318;SDS011;24121;53.536;10.224;2023-04-25T09:28:07;7.95;;;2.42;;
38318;SDS011;24121;53.536;10.224;2023-04-25T09:30:34;7.20;;;2.30;;
38318;SDS011;24121;53.536;10.224;2023-04-25T09:33:06;8.13;;;2.22;;
38318;SDS011;24121;53.536;10.224;2023-04-25T09:35:36;7.00;;;2.50;;
38318;SDS011;24121;53.536;10.224;2023-04-25T09:38:10;6.82;;;2.00;;
38318;SDS011;24121;53.536;10.224;2023-04-25T09:43:09;7.88;;;1.90;;
38318;SDS011;24121;53.536;10.224;2023-04-25T09:45:42;5.70;;;2.38;;
38318;SDS011;24121;53.536;10.224;2023-04-25T09:48:11;7.00;;;1.80;;
38318;SDS011;24121;53.536;10.224;2023-04-25T09:50:37;11.88;;;2.53;;
38318;SDS011;24121;53.536;10.224;2023-04-25T09:53:05;9.57;;;2.30;;
38318;SDS011;24121;53.536;10.224;2023-04-25T09:55:34;11.52;;;2.25;;
38318;SDS011;24121;53.536;10.224;2023-04-25T09:58:02;14.50;;;2.42;;
38318;SDS011;24121;53.536;10.224;2023-04-25T10:00:30;6.40;;;1.80;;
38318;SDS011;24121;53.536;10.224;2023-04-25T10:02:56;4.05;;;1.02;;
38318;SDS011;24121;53.536;10.224;2023-04-25T10:05:22;5.85;;;1.20;;
38318;SDS011;24121;53.536;10.224;2023-04-25T10:07:49;4.28;;;1.15;;
38318;SDS011;24121;53.536;10.224;2023-04-25T10:10:15;4.60;;;1.10;;
38318;SDS011;24121;53.536;10.224;2023-04-25T10:12:41;6.20;;;1.42;;
38318;SDS011;24121;53.536;10.224;2023-04-25T10:15:08;5.28;;;1.77;;
38318;SDS011;24121;53.536;10.224;2023-04-25T10:17:34;8.77;;;1.77;;
38318;SDS011;24121;53.536;10.224;2023-04-25T10:20:01;6.00;;;2.03;;
38318;SDS011;24121;53.536;10.224;2023-04-25T10:22:31;8.93;;;2.42;;
38318;SDS011;24121;53.536;10.224;2023-04-25T10:24:58;7.35;;;2.30;;
38318;SDS011;24121;53.536;10.224;2023-04-25T10:27:27;11.50;;;2.50;;
38318;SDS011;24121;53.536;10.224;2023-04-25T10:29:59;8.00;;;2.20;;
38318;SDS011;24121;53.536;10.224;2023-04-25T10:32:43;9.70;;;1.90;;
38318;SDS011;24121;53.536;10.224;2023-04-25T10:35:11;10.30;;;2.20;;
38318;SDS011;24121;53.536;10.224;2023-04-25T10:40:37;8.70;;;2.05;;
38318;SDS011;24121;53.536;10.224;2023-04-25T10:45:56;4.93;;;2.25;;
38318;SDS011;24121;53.536;10.224;2023-04-25T10:48:25;9.20;;;2.35;;
38318;SDS011;24121;53.536;10.224;2023-04-25T10:51:06;6.75;;;1.65;;
38318;SDS011;24121;53.536;10.224;2023-04-25T10:53:34;5.72;;;1.52;;
38318;SDS011;24121;53.536;10.224;2023-04-25T10:56:08;5.03;;;1.50;;
38318;SDS011;24121;53.536;10.224;2023-04-25T10:58:42;6.85;;;1.65;;
38318;SDS011;24121;53.536;10.224;2023-04-25T11:01:08;8.10;;;1.75;;
38318;SDS011;24121;53.536;10.224;2023-04-25T11:03:37;6.80;;;1.55;;
38318;SDS011;24121;53.536;10.224;2023-04-25T11:06:05;3.97;;;1.75;;
38318;SDS011;24121;53.536;10.224;2023-04-25T11:08:56;7.90;;;2.15;;
38318;SDS011;24121;53.536;10.224;2023-04-25T11:11:22;10.55;;;2.03;;
38318;SDS011;24121;53.536;10.224;2023-04-25T11:13:47;6.25;;;2.28;;
38318;SDS011;24121;53.536;10.224;2023-04-25T11:16:14;7.97;;;2.10;;
38318;SDS011;24121;53.536;10.224;2023-04-25T11:18:43;8.57;;;1.98;;
38318;SDS011;24121;53.536;10.224;2023-04-25T11:21:09;11.30;;;2.00;;
38318;SDS011;24121;53.536;10.224;2023-04-25T11:23:35;9.25;;;1.70;;
38318;SDS011;24121;53.536;10.224;2023-04-25T11:26:01;9.38;;;2.28;;
38318;SDS011;24121;53.536;10.224;2023-04-25T11:28:27;8.23;;;1.83;;
38318;SDS011;24121;53.536;10.224;2023-04-25T11:30:53;11.55;;;2.10;;
38318;SDS011;24121;53.536;10.224;2023-04-25T11:33:22;11.43;;;2.30;;
38318;SDS011;24121;53.536;10.224;2023-04-25T11:35:48;8.68;;;1.85;;
38318;SDS011;24121;53.536;10.224;2023-04-25T11:38:14;7.05;;;2.08;;
38318;SDS011;24121;53.536;10.224;2023-04-25T11:40:39;6.47;;;1.88;;
38318;SDS011;24121;53.536;10.224;2023-04-25T11:43:05;5.68;;;1.92;;
38318;SDS011;24121;53.536;10.224;2023-04-25T11:45:30;9.75;;;1.98;;
38318;SDS011;24121;53.536;10.224;2023-04-25T11:47:56;6.57;;;1.75;;
38318;SDS011;24121;53.536;10.224;2023-04-25T11:50:21;6.00;;;1.40;;
38318;SDS011;24121;53.536;10.224;2023-04-25T11:52:47;6.80;;;1.60;;
38318;SDS011;24121;53.536;10.224;2023-04-25T11:55:14;6.70;;;2.25;;
38318;SDS011;24121;53.536;10.224;2023-04-25T11:57:41;7.15;;;1.73;;
38318;SDS011;24121;53.536;10.224;2023-04-25T12:00:14;5.70;;;1.70;;
38318;SDS011;24121;53.536;10.224;2023-04-25T12:02:55;5.93;;;1.42;;
38318;SDS011;24121;53.536;10.224;2023-04-25T12:05:29;7.13;;;1.80;;
38318;SDS011;24121;53.536;10.224;2023-04-25T12:07:55;5.07;;;1.30;;
38318;SDS011;24121;53.536;10.224;2023-04-25T12:10:21;6.07;;;1.30;;
38318;SDS011;24121;53.536;10.224;2023-04-25T12:12:46;5.10;;;1.25;;
38318;SDS011;24121;53.536;10.224;2023-04-25T12:15:13;4.45;;;1.70;;
38318;SDS011;24121;53.536;10.224;2023-04-25T12:17:48;5.57;;;1.40;;
38318;SDS011;24121;53.536;10.224;2023-04-25T12:20:18;6.82;;;1.80;;
38318;SDS011;24121;53.536;10.224;2023-04-25T12:22:46;3.60;;;1.10;;
38318;SDS011;24121;53.536;10.224;2023-04-25T12:25:12;7.45;;;1.48;;
38318;SDS011;24121;53.536;10.224;2023-04-25T12:27:38;4.43;;;1.38;;
38318;SDS011;24121;53.536;10.224;2023-04-25T12:30:07;6.45;;;1.42;;
38318;SDS011;24121;53.536;10.224;2023-04-25T12:32:32;8.65;;;1.95;;
38318;SDS011;24121;53.536;10.224;2023-04-25T12:34:58;5.60;;;1.55;;
38318;SDS011;24121;53.536;10.224;2023-04-25T12:37:23;6.30;;;1.73;;
38318;SDS011;24121;53.536;10.224;2023-04-25T12:39:48;6.53;;;1.60;;
38318;SDS011;24121;53.536;10.224;2023-04-25T12:42:14;3.75;;;1.33;;
38318;SDS011;24121;53.536;10.224;2023-04-25T12:44:39;6.55;;;1.70;;
38318;SDS011;24121;53.536;10.224;2023-04-25T12:47:05;3.47;;;0.98;;
38318;SDS011;24121;53.536;10.224;2023-04-25T12:49:31;2.58;;;1.00;;
38318;SDS011;24121;53.536;10.224;2023-04-25T12:51:57;3.88;;;1.20;;
38318;SDS011;24121;53.536;10.224;2023-04-25T12:54:22;5.03;;;1.80;;
38318;SDS011;24121;53.536;10.224;2023-04-25T12:56:48;5.40;;;1.02;;
38318;SDS011;24121;53.536;10.224;2023-04-25T12:59:13;5.88;;;1.35;;
38318;SDS011;24121;53.536;10.224;2023-04-25T13:01:39;4.53;;;1.00;;
38318;SDS011;24121;53.536;10.224;2023-04-25T13:04:04;7.75;;;1.60;;
38318;SDS011;24121;53.536;10.224;2023-04-25T13:06:29;3.22;;;1.10;;
38318;SDS011;24121;53.536;10.224;2023-04-25T13:08:55;6.85;;;1.48;;
38318;SDS011;24121;53.536;10.224;2023-04-25T13:11:21;5.72;;;1.40;;
38318;SDS011;24121;53.536;10.224;2023-04-25T13:13:46;5.47;;;1.50;;
38318;SDS011;24121;53.536;10.224;2023-04-25T13:16:12;10.20;;;2.03;;
38318;SDS011;24121;53.536;10.224;2023-04-25T13:18:41;10.05;;;1.75;;
38318;SDS011;24121;53.536;10.224;2023-04-25T13:21:08;8.15;;;1.65;;
38318;SDS011;24121;53.536;10.224;2023-04-25T13:23:34;4.07;;;1.40;;
38318;SDS011;24121;53.536;10.224;2023-04-25T13:26:00;5.75;;;1.65;;
38318;SDS011;24121;53.536;10.224;2023-04-25T13:28:26;10.23;;;1.83;;
38318;SDS011;24121;53.536;10.224;2023-04-25T13:30:52;6.80;;;1.75;;
38318;SDS011;24121;53.536;10.224;2023-04-25T13:33:18;4.55;;;1.40;;
38318;SDS011;24121;53.536;10.224;2023-04-25T13:35:45;5.93;;;1.40;;
38318;SDS011;24121;53.536;10.224;2023-04-25T13:38:22;5.68;;;1.73;;
38318;SDS011;24121;53.536;10.224;2023-04-25T13:40:48;4.57;;;1.25;;
38318;SDS011;24121;53.536;10.224;2023-04-25T13:43:14;4.13;;;1.30;;
38318;SDS011;24121;53.536;10.224;2023-04-25T13:45:39;6.60;;;1.73;;
38318;SDS011;24121;53.536;10.224;2023-04-25T13:48:05;5.03;;;1.30;;
38318;SDS011;24121;53.536;10.224;2023-04-25T13:50:32;5.35;;;1.60;;
38318;SDS011;24121;53.536;10.224;2023-04-25T13:52:57;5.07;;;1.88;;
38318;SDS011;24121;53.536;10.224;2023-04-25T13:55:22;5.97;;;1.73;;
38318;SDS011;24121;53.536;10.224;2023-04-25T13:57:48;5.72;;;1.55;;
38318;SDS011;24121;53.536;10.224;2023-04-25T14:00:13;8.73;;;2.00;;
38318;SDS011;24121;53.536;10.224;2023-04-25T14:02:39;10.30;;;2.13;;
38318;SDS011;24121;53.536;10.224;2023-04-25T14:05:04;6.88;;;2.00;;
38318;SDS011;24121;53.536;10.224;2023-04-25T14:07:30;6.90;;;1.98;;
38318;SDS011;24121;53.536;10.224;2023-04-25T14:09:56;6.88;;;1.70;;
38318;SDS011;24121;53.536;10.224;2023-04-25T14:12:24;5.18;;;1.50;;
38318;SDS011;24121;53.536;10.224;2023-04-25T14:14:50;6.05;;;1.73;;
38318;SDS011;24121;53.536;10.224;2023-04-25T14:17:15;4.85;;;1.63;;
38318;SDS011;24121;53.536;10.224;2023-04-25T14:19:41;7.05;;;1.20;;
38318;SDS011;24121;53.536;10.224;2023-04-25T14:22:10;7.63;;;1.60;;
38318;SDS011;24121;53.536;10.224;2023-04-25T14:24:35;4.82;;;1.17;;
38318;SDS011;24121;53.536;10.224;2023-04-25T14:27:01;7.20;;;2.05;;
38318;SDS011;24121;53.536;10.224;2023-04-25T14:29:26;6.72;;;1.63;;
38318;SDS011;24121;53.536;10.224;2023-04-25T14:31:52;4.10;;;1.48;;
38318;SDS011;24121;53.536;10.224;2023-04-25T14:34:18;12.13;;;1.90;;
38318;SDS011;24121;53.536;10.224;2023-04-25T14:36:43;6.55;;;1.55;;
38318;SDS011;24121;53.536;10.224;2023-04-25T14:39:09;4.22;;;1.45;;
38318;SDS011;24121;53.536;10.224;2023-04-25T14:41:35;7.65;;;1.80;;
38318;SDS011;24121;53.536;10.224;2023-04-25T14:44:00;7.28;;;1.65;;
38318;SDS011;24121;53.536;10.224;2023-04-25T14:46:26;6.70;;;2.10;;
38318;SDS011;24121;53.536;10.224;2023-04-25T14:48:51;9.27;;;2.25;;
38318;SDS011;24121;53.536;10.224;2023-04-25T14:51:17;9.43;;;1.80;;
38318;SDS011;24121;53.536;10.224;2023-04-25T14:53:42;5.18;;;1.40;;
38318;SDS011;24121;53.536;10.224;2023-04-25T14:56:07;5.43;;;1.50;;
38318;SDS011;24121;53.536;10.224;2023-04-25T14:58:33;11.43;;;1.63;;
38318;SDS011;24121;53.536;10.224;2023-04-25T15:00:59;5.80;;;1.38;;
38318;SDS011;24121;53.536;10.224;2023-04-25T15:03:25;3.15;;;1.13;;
38318;SDS011;24121;53.536;10.224;2023-04-25T15:05:50;4.68;;;1.25;;
38318;SDS011;24121;53.536;10.224;2023-04-25T15:08:16;4.60;;;1.50;;
38318;SDS011;24121;53.536;10.224;2023-04-25T15:10:41;6.97;;;1.52;;
38318;SDS011;24121;53.536;10.224;2023-04-25T15:13:06;7.15;;;1.58;;
38318;SDS011;24121;53.536;10.224;2023-04-25T15:15:32;2.75;;;1.05;;
38318;SDS011;24121;53.536;10.224;2023-04-25T15:17:57;4.35;;;0.98;;
38318;SDS011;24121;53.536;10.224;2023-04-25T15:20:23;5.03;;;1.10;;
38318;SDS011;24121;53.536;10.224;2023-04-25T15:22:48;4.32;;;1.30;;
38318;SDS011;24121;53.536;10.224;2023-04-25T15:25:14;6.22;;;1.58;;
38318;SDS011;24121;53.536;10.224;2023-04-25T15:27:43;6.25;;;1.58;;
38318;SDS011;24121;53.536;10.224;2023-04-25T15:30:13;8.57;;;2.10;;
38318;SDS011;24121;53.536;10.224;2023-04-25T15:32:40;9.55;;;1.80;;
38318;SDS011;24121;53.536;10.224;2023-04-25T15:35:06;5.43;;;1.70;;
38318;SDS011;24121;53.536;10.224;2023-04-25T15:37:32;7.50;;;1.63;;
38318;SDS011;24121;53.536;10.224;2023-04-25T15:40:02;6.03;;;1.50;;
38318;SDS011;24121;53.536;10.224;2023-04-25T15:42:34;6.57;;;1.55;;
38318;SDS011;24121;53.536;10.224;2023-04-25T15:45:09;8.73;;;1.50;;
38318;SDS011;24121;53.536;10.224;2023-04-25T15:47:35;7.50;;;1.65;;
38318;SDS011;24121;53.536;10.224;2023-04-25T15:50:02;6.82;;;1.48;;
38318;SDS011;24121;53.536;10.224;2023-04-25T15:52:29;6.18;;;1.50;;
38318;SDS011;24121;53.536;10.224;2023-04-25T15:54:55;9.20;;;1.70;;
38318;SDS011;24121;53.536;10.224;2023-04-25T15:57:21;6.68;;;2.40;;
38318;SDS011;24121;53.536;10.224;2023-04-25T15:59:47;5.85;;;1.73;;
38318;SDS011;24121;53.536;10.224;2023-04-25T16:02:13;7.05;;;1.88;;
38318;SDS011;24121;53.536;10.224;2023-04-25T16:04:38;8.95;;;1.90;;
38318;SDS011;24121;53.536;10.224;2023-04-25T16:07:04;9.57;;;1.90;;
38318;SDS011;24121;53.536;10.224;2023-04-25T16:09:30;6.93;;;1.60;;
38318;SDS011;24121;53.536;10.224;2023-04-25T16:11:55;4.25;;;1.52;;
38318;SDS011;24121;53.536;10.224;2023-04-25T16:14:21;5.00;;;1.63;;
38318;SDS011;24121;53.536;10.224;2023-04-25T16:16:46;5.60;;;1.45;;
38318;SDS011;24121;53.536;10.224;2023-04-25T16:19:11;7.38;;;1.42;;
38318;SDS011;24121;53.536;10.224;2023-04-25T16:21:37;6.03;;;1.13;;
38318;SDS011;24121;53.536;10.224;2023-04-25T16:24:02;4.93;;;1.13;;
38318;SDS011;24121;53.536;10.224;2023-04-25T16:26:28;8.85;;;1.70;;
38318;SDS011;24121;53.536;10.224;2023-04-25T16:28:53;9.57;;;1.90;;
38318;SDS011;24121;53.536;10.224;2023-04-25T16:31:18;7.93;;;1.90;;
38318;SDS011;24121;53.536;10.224;2023-04-25T16:33:44;7.18;;;1.80;;
38318;SDS011;24121;53.536;10.224;2023-04-25T16:36:10;5.55;;;1.63;;
38318;SDS011;24121;53.536;10.224;2023-04-25T16:38:36;7.03;;;1.42;;
38318;SDS011;24121;53.536;10.224;2023-04-25T16:41:03;4.38;;;1.40;;
38318;SDS011;24121;53.536;10.224;2023-04-25T16:43:29;6.97;;;1.83;;
38318;SDS011;24121;53.536;10.224;2023-04-25T16:45:54;4.00;;;1.25;;
38318;SDS011;24121;53.536;10.224;2023-04-25T16:48:19;5.15;;;1.35;;
38318;SDS011;24121;53.536;10.224;2023-04-25T16:50:48;5.35;;;1.30;;
38318;SDS011;24121;53.536;10.224;2023-04-25T16:53:14;4.53;;;1.50;;
38318;SDS011;24121;53.536;10.224;2023-04-25T16:55:39;7.25;;;1.55;;
38318;SDS011;24121;53.536;10.224;2023-04-25T16:58:04;6.25;;;1.58;;
38318;SDS011;24121;53.536;10.224;2023-04-25T17:00:31;7.95;;;1.65;;
38318;SDS011;24121;53.536;10.224;2023-04-25T17:02:56;9.80;;;1.50;;
38318;SDS011;24121;53.536;10.224;2023-04-25T17:05:23;7.25;;;1.80;;
38318;SDS011;24121;53.536;10.224;2023-04-25T17:07:48;9.80;;;2.20;;
38318;SDS011;24121;53.536;10.224;2023-04-25T17:10:14;8.05;;;1.50;;
38318;SDS011;24121;53.536;10.224;2023-04-25T17:12:39;7.82;;;2.58;;
38318;SDS011;24121;53.536;10.224;2023-04-25T17:15:05;4.80;;;1.60;;
38318;SDS011;24121;53.536;10.224;2023-04-25T17:17:30;5.22;;;1.38;;
38318;SDS011;24121;53.536;10.224;2023-04-25T17:19:56;6.50;;;1.35;;
38318;SDS011;24121;53.536;10.224;2023-04-25T17:22:22;9.60;;;1.65;;
38318;SDS011;24121;53.536;10.224;2023-04-25T17:24:48;8.10;;;1.50;;
38318;SDS011;24121;53.536;10.224;2023-04-25T17:27:13;5.90;;;1.73;;
38318;SDS011;24121;53.536;10.224;2023-04-25T17:29:39;7.57;;;1.33;;
38318;SDS011;24121;53.536;10.224;2023-04-25T17:32:05;6.03;;;1.98;;
38318;SDS011;24121;53.536;10.224;2023-04-25T17:34:30;2.95;;;1.20;;
38318;SDS011;24121;53.536;10.224;2023-04-25T17:36:55;6.38;;;1.35;;
38318;SDS011;24121;53.536;10.224;2023-04-25T17:39:21;5.38;;;1.10;;
38318;SDS011;24121;53.536;10.224;2023-04-25T17:41:46;6.35;;;1.42;;
38318;SDS011;24121;53.536;10.224;2023-04-25T17:44:12;3.70;;;1.73;;
38318;SDS011;24121;53.536;10.224;2023-04-25T17:46:37;4.40;;;1.23;;
38318;SDS011;24121;53.536;10.224;2023-04-25T17:49:02;5.70;;;1.60;;
38318;SDS011;24121;53.536;10.224;2023-04-25T17:51:28;5.30;;;1.38;;
38318;SDS011;24121;53.536;10.224;2023-04-25T17:53:54;4.57;;;1.35;;
38318;SDS011;24121;53.536;10.224;2023-04-25T17:56:19;5.88;;;1.77;;
38318;SDS011;24121;53.536;10.224;2023-04-25T17:58:45;3.85;;;1.38;;
38318;SDS011;24121;53.536;10.224;2023-04-25T18:01:11;5.07;;;1.17;;
38318;SDS011;24121;53.536;10.224;2023-04-25T18:03:36;5.40;;;1.33;;
38318;SDS011;24121;53.536;10.224;2023-04-25T18:06:04;4.90;;;1.30;;
38318;SDS011;24121;53.536;10.224;2023-04-25T18:08:29;7.18;;;1.25;;
38318;SDS011;24121;53.536;10.224;2023-04-25T18:10:55;6.25;;;1.23;;
38318;SDS011;24121;53.536;10.224;2023-04-25T18:13:21;6.28;;;1.70;;
38318;SDS011;24121;53.536;10.224;2023-04-25T18:15:46;5.78;;;2.25;;
38318;SDS011;24121;53.536;10.224;2023-04-25T18:18:12;5.45;;;1.25;;
38318;SDS011;24121;53.536;10.224;2023-04-25T18:20:44;8.93;;;1.65;;
38318;SDS011;24121;53.536;10.224;2023-04-25T18:23:10;6.38;;;1.70;;
38318;SDS011;24121;53.536;10.224;2023-04-25T18:25:36;6.28;;;1.65;;
38318;SDS011;24121;53.536;10.224;2023-04-25T18:28:01;8.85;;;2.38;;
38318;SDS011;24121;53.536;10.224;2023-04-25T18:30:26;8.73;;;1.65;;
38318;SDS011;24121;53.536;10.224;2023-04-25T18:32:52;7.78;;;2.03;;
38318;SDS011;24121;53.536;10.224;2023-04-25T18:35:17;7.85;;;1.92;;
38318;SDS011;24121;53.536;10.224;2023-04-25T18:37:42;8.52;;;1.73;;
38318;SDS011;24121;53.536;10.224;2023-04-25T18:40:08;6.63;;;2.10;;
38318;SDS011;24121;53.536;10.224;2023-04-25T18:42:37;7.57;;;2.13;;
38318;SDS011;24121;53.536;10.224;2023-04-25T18:45:03;7.18;;;2.03;;
38318;SDS011;24121;53.536;10.224;2023-04-25T18:47:29;8.32;;;2.15;;
38318;SDS011;24121;53.536;10.224;2023-04-25T18:49:55;7.07;;;1.42;;
38318;SDS011;24121;53.536;10.224;2023-04-25T18:52:20;5.63;;;1.90;;
38318;SDS011;24121;53.536;10.224;2023-04-25T18:54:46;8.38;;;2.28;;
38318;SDS011;24121;53.536;10.224;2023-04-25T18:57:11;6.97;;;2.08;;
38318;SDS011;24121;53.536;10.224;2023-04-25T18:59:38;4.50;;;2.08;;
38318;SDS011;24121;53.536;10.224;2023-04-25T19:02:03;7.95;;;2.15;;
38318;SDS011;24121;53.536;10.224;2023-04-25T19:04:29;7.68;;;2.40;;
38318;SDS011;24121;53.536;10.224;2023-04-25T19:06:54;6.68;;;1.75;;
38318;SDS011;24121;53.536;10.224;2023-04-25T19:09:20;7.93;;;2.10;;
38318;SDS011;24121;53.536;10.224;2023-04-25T19:11:45;7.22;;;1.98;;
38318;SDS011;24121;53.536;10.224;2023-04-25T19:14:12;7.70;;;1.70;;
38318;SDS011;24121;53.536;10.224;2023-04-25T19:16:37;8.70;;;1.98;;
38318;SDS011;24121;53.536;10.224;2023-04-25T19:19:03;7.80;;;1.60;;
38318;SDS011;24121;53.536;10.224;2023-04-25T19:21:29;10.57;;;2.80;;
38318;SDS011;24121;53.536;10.224;2023-04-25T19:23:54;11.00;;;1.85;;
38318;SDS011;24121;53.536;10.224;2023-04-25T19:26:20;8.73;;;2.17;;
38318;SDS011;24121;53.536;10.224;2023-04-25T19:28:46;13.45;;;2.03;;
38318;SDS011;24121;53.536;10.224;2023-04-25T19:31:11;9.35;;;1.77;;
38318;SDS011;24121;53.536;10.224;2023-04-25T19:33:36;8.05;;;1.92;;
38318;SDS011;24121;53.536;10.224;2023-04-25T19:36:02;14.57;;;3.13;;
38318;SDS011;24121;53.536;10.224;2023-04-25T19:38:28;5.28;;;1.83;;
38318;SDS011;24121;53.536;10.224;2023-04-25T19:40:54;6.25;;;1.88;;
38318;SDS011;24121;53.536;10.224;2023-04-25T19:43:19;6.75;;;2.05;;
38318;SDS011;24121;53.536;10.224;2023-04-25T19:45:44;9.80;;;2.08;;
38318;SDS011;24121;53.536;10.224;2023-04-25T19:48:10;4.95;;;1.83;;
38318;SDS011;24121;53.536;10.224;2023-04-25T19:50:36;7.75;;;2.15;;
38318;SDS011;24121;53.536;10.224;2023-04-25T19:53:01;10.18;;;2.22;;
38318;SDS011;24121;53.536;10.224;2023-04-25T19:55:28;10.27;;;2.28;;
38318;SDS011;24121;53.536;10.224;2023-04-25T19:57:53;8.65;;;1.77;;
38318;SDS011;24121;53.536;10.224;2023-04-25T20:00:18;8.80;;;1.98;;
38318;SDS011;24121;53.536;10.224;2023-04-25T20:02:45;10.10;;;1.98;;
38318;SDS011;24121;53.536;10.224;2023-04-25T20:05:11;9.77;;;2.38;;
38318;SDS011;24121;53.536;10.224;2023-04-25T20:07:38;6.80;;;1.80;;
38318;SDS011;24121;53.536;10.224;2023-04-25T20:10:04;7.50;;;2.08;;
38318;SDS011;24121;53.536;10.224;2023-04-25T20:12:31;11.88;;;2.50;;
38318;SDS011;24121;53.536;10.224;2023-04-25T20:14:56;7.57;;;2.05;;
38318;SDS011;24121;53.536;10.224;2023-04-25T20:17:22;9.48;;;2.08;;
38318;SDS011;24121;53.536;10.224;2023-04-25T20:19:47;8.70;;;1.95;;
38318;SDS011;24121;53.536;10.224;2023-04-25T20:22:13;10.73;;;2.53;;
38318;SDS011;24121;53.536;10.224;2023-04-25T20:24:38;10.70;;;1.65;;
38318;SDS011;24121;53.536;10.224;2023-04-25T20:27:03;11.23;;;2.78;;
38318;SDS011;24121;53.536;10.224;2023-04-25T20:29:29;8.40;;;1.95;;
38318;SDS011;24121;53.536;10.224;2023-04-25T20:31:55;10.57;;;2.55;;
38318;SDS011;24121;53.536;10.224;2023-04-25T20:34:21;7.03;;;2.00;;
38318;SDS011;24121;53.536;10.224;2023-04-25T20:36:46;6.75;;;1.92;;
38318;SDS011;24121;53.536;10.224;2023-04-25T20:39:12;10.02;;;1.88;;
38318;SDS011;24121;53.536;10.224;2023-04-25T20:41:38;8.90;;;2.33;;
38318;SDS011;24121;53.536;10.224;2023-04-25T20:44:04;9.73;;;2.40;;
38318;SDS011;24121;53.536;10.224;2023-04-25T20:46:31;8.82;;;1.58;;
38318;SDS011;24121;53.536;10.224;2023-04-25T20:48:57;10.48;;;1.80;;
38318;SDS011;24121;53.536;10.224;2023-04-25T20:51:23;10.43;;;2.17;;
38318;SDS011;24121;53.536;10.224;2023-04-25T20:53:48;8.88;;;2.13;;
38318;SDS011;24121;53.536;10.224;2023-04-25T20:56:13;10.35;;;1.98;;
38318;SDS011;24121;53.536;10.224;2023-04-25T20:58:39;11.30;;;2.47;;
38318;SDS011;24121;53.536;10.224;2023-04-25T21:01:04;7.72;;;1.70;;
38318;SDS011;24121;53.536;10.224;2023-04-25T21:03:30;7.13;;;2.13;;
38318;SDS011;24121;53.536;10.224;2023-04-25T21:05:56;7.07;;;1.48;;
38318;SDS011;24121;53.536;10.224;2023-04-25T21:08:21;7.47;;;1.35;;
38318;SDS011;24121;53.536;10.224;2023-04-25T21:10:47;9.38;;;2.15;;
38318;SDS011;24121;53.536;10.224;2023-04-25T21:13:12;7.30;;;1.90;;
38318;SDS011;24121;53.536;10.224;2023-04-25T21:15:37;8.65;;;2.42;;
38318;SDS011;24121;53.536;10.224;2023-04-25T21:18:03;7.30;;;2.63;;
38318;SDS011;24121;53.536;10.224;2023-04-25T21:20:28;7.30;;;1.70;;
38318;SDS011;24121;53.536;10.224;2023-04-25T21:22:54;11.55;;;2.42;;
38318;SDS011;24121;53.536;10.224;2023-04-25T21:25:20;8.63;;;1.80;;